Time;durP1;ratioP1;P1;durP2;ratioP2;P2;SDS_P1;SDS_P2;PMS_P1;PMS_P2;Temp;Humidity;BMP_temperature;BMP_pressure;BME280_temperature;BME280_humidity;BME280_pressure;Samples;Min_cycle;Max_cycle;Signal;HPM_P1;HPM_P2
2024/01/28 00:01:08;;;;;;;;;;;;;;;4.30;55.22;96160.38;5053718;28;977;-57
2024/01/28 00:03:40;;;;;;;;;;;;;;;4.31;55.13;96167.41;5053466;28;945;-57
2024/01/28 00:06:15;;;;;;;;;;;;;;;4.34;54.65;96176.94;5053376;28;937;-58
2024/01/28 00:08:49;;;;;;;;;;;;;;;4.28;55.29;96173.72;5053436;28;1847;-57
2024/01/28 00:11:24;;;;;;;;;;;;;;;4.36;55.22;96170.56;5053272;28;993;-58
2024/01/28 00:13:57;;;;;;;;;;;;;;;4.30;55.28;96163.03;5053231;28;1240;-57
2024/01/28 00:16:30;;;;;;;;;;;;;;;4.28;55.07;96170.22;5053419;28;1004;-58
2024/01/28 00:19:05;;;;;;;;;;;;;;;4.27;55.42;96166.75;5053141;28;2285;-58
2024/01/28 00:21:37;;;;;;;;;;;;;;;4.33;54.86;96168.16;5053171;28;985;-58
2024/01/28 00:24:11;;;;;;;;;;;;;;;4.30;55.11;96170.97;5053051;28;1016;-58
2024/01/28 00:26:44;;;;;;;;;;;;;;;4.26;55.27;96172.97;5053449;28;989;-58
2024/01/28 00:29:20;;;;;;;;;;;;;;;4.33;55.43;96173.44;5053323;28;1040;-57
2024/01/28 00:31:58;;;;;;;;;;;;;;;4.29;55.38;96170.13;5053168;28;988;-58
2024/01/28 00:34:33;;;;;;;;;;;;;;;4.33;55.48;96178.72;5052947;28;1497;-58
2024/01/28 00:37:06;;;;;;;;;;;;;;;4.26;55.46;96180.06;5052991;28;881;-58
2024/01/28 00:39:40;;;;;;;;;;;;;;;4.21;55.79;96183.00;5053121;28;1914;-58
2024/01/28 00:42:16;;;;;;;;;;;;;;;4.22;55.67;96176.75;5052967;28;994;-57
2024/01/28 00:44:47;;;;;;;;;;;;;;;4.26;55.22;96182.72;5053071;28;958;-58
2024/01/28 00:47:20;;;;;;;;;;;;;;;4.34;54.97;96195.47;5052848;28;927;-58
2024/01/28 00:49:53;;;;;;;;;;;;;;;4.33;55.09;96193.78;5053282;28;960;-57
2024/01/28 00:52:27;;;;;;;;;;;;;;;4.30;55.42;96189.50;5050659;28;1146;-57
2024/01/28 00:54:59;;;;;;;;;;;;;;;4.37;54.71;96180.22;5033248;28;1040;-58
2024/01/28 00:57:32;;;;;;;;;;;;;;;4.33;54.24;96180.53;5032820;28;1991;-58
2024/01/28 01:00:06;;;;;;;;;;;;;;;4.33;55.27;96178.72;5032906;28;1018;-58
2024/01/28 01:02:40;;;;;;;;;;;;;;;4.39;54.98;96173.03;5033123;28;877;-58
2024/01/28 01:05:14;;;;;;;;;;;;;;;4.30;54.56;96177.09;5033061;28;1005;-58
2024/01/28 01:07:47;;;;;;;;;;;;;;;4.33;54.59;96178.72;5035788;28;985;-57
2024/01/28 01:10:25;;;;;;;;;;;;;;;4.31;54.85;96175.34;5036831;28;1239;-58
2024/01/28 01:12:59;;;;;;;;;;;;;;;4.35;54.42;96182.13;5036865;28;1074;-58
2024/01/28 01:15:31;;;;;;;;;;;;;;;4.28;54.89;96186.09;5036759;28;2099;-58
2024/01/28 01:18:03;;;;;;;;;;;;;;;4.34;54.44;96196.31;5036573;28;1987;-58
2024/01/28 01:20:37;;;;;;;;;;;;;;;4.32;55.21;96184.13;5036881;28;921;-58
2024/01/28 01:23:12;;;;;;;;;;;;;;;4.24;55.06;96188.09;5036406;28;1751;-57
2024/01/28 01:25:45;;;;;;;;;;;;;;;4.29;54.78;96191.31;5036772;28;980;-58
2024/01/28 01:28:16;;;;;;;;;;;;;;;4.37;54.61;96196.13;5036522;28;1579;-58
2024/01/28 01:30:51;;;;;;;;;;;;;;;4.41;54.20;96200.28;5036402;28;1044;-58
2024/01/28 01:33:25;;;;;;;;;;;;;;;4.32;54.89;96192.91;5036450;28;973;-57
2024/01/28 01:35:57;;;;;;;;;;;;;;;4.43;54.66;96194.88;5036496;28;934;-58
2024/01/28 01:38:32;;;;;;;;;;;;;;;4.37;55.29;96193.47;5036180;28;1906;-58
2024/01/28 01:41:06;;;;;;;;;;;;;;;4.31;55.31;96212.41;5036152;28;977;-57
2024/01/28 01:43:39;;;;;;;;;;;;;;;4.35;55.34;96213.91;5036088;28;984;-58
2024/01/28 01:46:12;;;;;;;;;;;;;;;4.19;55.78;96223.75;5036356;28;902;-58
2024/01/28 01:48:45;;;;;;;;;;;;;;;4.09;56.02;96210.25;5036333;28;1151;-58
2024/01/28 01:51:19;;;;;;;;;;;;;;;4.11;56.24;96206.53;5036027;28;938;-58
2024/01/28 01:53:54;;;;;;;;;;;;;;;4.07;56.13;96212.13;5050415;28;1138;-58
2024/01/28 01:56:31;;;;;;;;;;;;;;;4.07;56.68;96210.31;5056128;28;935;-58
2024/01/28 01:59:05;;;;;;;;;;;;;;;4.13;56.36;96208.25;5055861;28;1906;-58
2024/01/28 02:01:40;;;;;;;;;;;;;;;4.28;56.23;96207.28;5055796;28;922;-58
2024/01/28 02:04:14;;;;;;;;;;;;;;;4.27;55.91;96200.31;5055609;28;908;-58
2024/01/28 02:06:50;;;;;;;;;;;;;;;4.21;56.46;96213.91;5055883;28;980;-58
2024/01/28 02:09:24;;;;;;;;;;;;;;;4.24;57.04;96214.56;5055516;28;1016;-58
2024/01/28 02:11:58;;;;;;;;;;;;;;;4.23;56.59;96214.66;5055751;28;992;-57
2024/01/28 02:14:32;;;;;;;;;;;;;;;4.20;56.00;96214.88;5055296;28;1693;-57
2024/01/28 02:17:03;;;;;;;;;;;;;;;4.18;56.19;96225.56;5055200;28;941;-58
2024/01/28 02:19:37;;;;;;;;;;;;;;;4.25;55.14;96218.06;5055553;28;1905;-58
2024/01/28 02:22:13;;;;;;;;;;;;;;;4.27;55.29;96222.34;5055276;28;949;-58
2024/01/28 02:24:47;;;;;;;;;;;;;;;4.27;55.47;96227.63;5055232;28;949;-58
2024/01/28 02:27:22;;;;;;;;;;;;;;;4.21;56.22;96222.72;5055106;28;1808;-58
2024/01/28 02:29:55;;;;;;;;;;;;;;;4.14;56.75;96221.41;5055484;28;917;-58
2024/01/28 02:32:28;;;;;;;;;;;;;;;4.19;56.98;96224.63;5055379;28;1001;-58
2024/01/28 02:35:00;;;;;;;;;;;;;;;4.22;56.53;96215.63;5055101;28;1576;-58
2024/01/28 02:37:34;;;;;;;;;;;;;;;4.23;56.78;96226.13;5054922;28;1990;-57
2024/01/28 02:40:08;;;;;;;;;;;;;;;4.27;56.81;96224.97;5054810;28;1024;-58
2024/01/28 02:42:43;;;;;;;;;;;;;;;4.02;57.63;96200.97;5054966;28;977;-58
2024/01/28 02:45:17;;;;;;;;;;;;;;;4.09;57.23;96224.31;5053867;28;915;-58
2024/01/28 02:47:50;;;;;;;;;;;;;;;4.06;57.93;96216.59;5054875;28;1004;-58
2024/01/28 02:50:22;;;;;;;;;;;;;;;4.12;57.44;96223.28;5054824;28;1580;-58
2024/01/28 02:52:56;;;;;;;;;;;;;;;4.09;57.26;96229.59;5048636;28;1157;-57
2024/01/28 02:55:31;;;;;;;;;;;;;;;4.00;58.52;96224.88;5035011;28;926;-58
2024/01/28 02:58:03;;;;;;;;;;;;;;;3.97;58.64;96227.75;5034744;28;1914;-58
2024/01/28 03:00:38;;;;;;;;;;;;;;;3.99;58.50;96232.94;5035095;28;1427;-58
2024/01/28 03:03:11;;;;;;;;;;;;;;;3.99;59.03;96232.94;5034571;28;945;-58
2024/01/28 03:05:44;;;;;;;;;;;;;;;4.00;59.41;96240.75;5034750;28;890;-58
2024/01/28 03:08:17;;;;;;;;;;;;;;;4.03;59.12;96237.09;5034635;28;1009;-57
2024/01/28 03:10:50;;;;;;;;;;;;;;;4.14;58.44;96241.72;5034823;28;1000;-58
2024/01/28 03:13:25;;;;;;;;;;;;;;;4.07;58.89;96242.09;5034335;28;1212;-58
2024/01/28 03:15:59;;;;;;;;;;;;;;;3.88;59.95;96244.16;5034621;28;907;-58
2024/01/28 03:18:33;;;;;;;;;;;;;;;3.79;59.44;96242.06;5034252;28;1971;-58
2024/01/28 03:21:07;;;;;;;;;;;;;;;3.83;59.72;96238.31;5034539;28;929;-57
2024/01/28 03:23:42;;;;;;;;;;;;;;;3.83;59.58;96244.47;5034587;28;916;-58
2024/01/28 03:26:23;;;;;;;;;;;;;;;3.78;59.92;96253.63;5034528;28;973;-58
2024/01/28 03:28:57;;;;;;;;;;;;;;;3.78;59.26;96250.97;5033784;28;1457;-57
2024/01/28 03:31:31;;;;;;;;;;;;;;;3.80;59.48;96254.38;5034058;28;1005;-58
2024/01/28 03:34:04;;;;;;;;;;;;;;;3.72;59.55;96249.56;5034111;28;1004;-58
2024/01/28 03:36:35;;;;;;;;;;;;;;;3.72;60.25;96254.84;5034037;28;1517;-57
2024/01/28 03:39:09;;;;;;;;;;;;;;;3.67;60.43;96251.63;5034187;28;1902;-57
2024/01/28 03:41:42;;;;;;;;;;;;;;;3.67;60.43;96254.25;5034020;28;937;-57
2024/01/28 03:44:22;;;;;;;;;;;;;;;3.73;60.02;96259.16;5033860;28;948;-58
2024/01/28 03:46:56;;;;;;;;;;;;;;;3.73;60.43;96259.16;5034067;28;997;-57
2024/01/28 03:49:30;;;;;;;;;;;;;;;3.66;60.67;96261.34;5033914;28;1122;-57
2024/01/28 03:52:04;;;;;;;;;;;;;;;3.71;60.32;96272.47;5033710;28;1055;-58
2024/01/28 03:54:38;;;;;;;;;;;;;;;3.74;60.10;96274.13;5033936;28;978;-57
2024/01/28 03:57:12;;;;;;;;;;;;;;;3.70;60.35;96277.91;5033601;28;933;-58
2024/01/28 03:59:44;;;;;;;;;;;;;;;3.78;60.42;96282.72;5033857;28;1906;-58
2024/01/28 04:02:18;;;;;;;;;;;;;;;3.70;60.49;96280.53;5033688;28;929;-58
2024/01/28 04:04:52;;;;;;;;;;;;;;;3.61;60.89;96287.22;5033815;28;934;-58
2024/01/28 04:07:25;;;;;;;;;;;;;;;3.54;60.74;96279.72;5033691;28;933;-57
2024/01/28 04:09:58;;;;;;;;;;;;;;;3.56;60.82;96286.63;5033700;28;938;-57
2024/01/28 04:12:29;;;;;;;;;;;;;;;3.63;60.01;96290.63;5033526;28;1367;-57
2024/01/28 04:15:02;;;;;;;;;;;;;;;3.61;60.02;96291.66;5033598;28;1523;-57
2024/01/28 04:17:37;;;;;;;;;;;;;;;3.59;60.44;96294.38;5033238;28;1958;-57
2024/01/28 04:20:09;;;;;;;;;;;;;;;3.42;61.00;96300.66;5033268;28;2345;-57
2024/01/28 04:22:44;;;;;;;;;;;;;;;3.42;60.88;96307.75;5033300;28;929;-57
2024/01/28 04:25:18;;;;;;;;;;;;;;;3.54;60.66;96301.72;5033343;28;930;-57
2024/01/28 04:27:52;;;;;;;;;;;;;;;3.47;60.62;96310.97;5033309;28;1036;-57
2024/01/28 04:30:21;;;;;;;;;;;;;;;3.45;60.72;96315.47;5033457;28;1647;-58
2024/01/28 04:32:55;;;;;;;;;;;;;;;3.48;61.22;96317.97;5032971;28;1592;-57
2024/01/28 04:35:29;;;;;;;;;;;;;;;3.43;60.65;96322.66;5033265;28;934;-57
2024/01/28 04:38:03;;;;;;;;;;;;;;;3.49;61.15;96325.81;5033246;28;1910;-57
2024/01/28 04:40:36;;;;;;;;;;;;;;;3.53;60.81;96329.13;5033206;28;1054;-58
2024/01/28 04:43:08;;;;;;;;;;;;;;;3.49;60.91;96327.59;5036837;28;1616;-58
2024/01/28 04:45:43;;;;;;;;;;;;;;;3.54;61.38;96336.13;5037461;28;1020;-58
2024/01/28 04:48:14;;;;;;;;;;;;;;;3.48;61.23;96339.97;5037298;28;1604;-58
2024/01/28 04:50:48;;;;;;;;;;;;;;;3.55;61.00;96335.19;5037023;28;957;-58
2024/01/28 04:53:22;;;;;;;;;;;;;;;3.54;60.52;96336.13;5046113;28;1213;-58
2024/01/28 04:55:55;;;;;;;;;;;;;;;3.47;60.99;96330.34;5056854;28;1121;-58
2024/01/28 04:58:26;;;;;;;;;;;;;;;3.51;61.06;96336.31;5056738;28;2004;-57
2024/01/28 05:00:59;;;;;;;;;;;;;;;3.34;61.51;96334.63;5057095;28;1614;-57
2024/01/28 05:03:31;;;;;;;;;;;;;;;3.28;61.49;96337.59;5056715;28;1639;-58
2024/01/28 05:06:06;;;;;;;;;;;;;;;3.32;61.39;96349.72;5056898;28;945;-57
2024/01/28 05:08:37;;;;;;;;;;;;;;;3.24;61.01;96357.22;5056898;28;1575;-57
2024/01/28 05:11:10;;;;;;;;;;;;;;;3.19;61.42;96353.97;5056912;28;1611;-58
2024/01/28 05:13:41;;;;;;;;;;;;;;;3.08;61.85;96363.38;5056564;28;1476;-57
2024/01/28 05:16:14;;;;;;;;;;;;;;;3.19;60.75;96364.56;5056703;28;1421;-58
2024/01/28 05:18:48;;;;;;;;;;;;;;;3.13;61.35;96371.06;5056530;28;1910;-58
2024/01/28 05:21:20;;;;;;;;;;;;;;;3.17;61.41;96371.72;5056626;28;1540;-57
2024/01/28 05:23:52;;;;;;;;;;;;;;;3.25;60.55;96375.66;5056343;28;1508;-58
2024/01/28 05:26:24;;;;;;;;;;;;;;;3.20;60.92;96380.34;5056462;28;1708;-58
2024/01/28 05:29:04;;;;;;;;;;;;;;;3.09;60.99;96382.72;5055181;28;1476;-57
2024/01/28 05:31:36;;;;;;;;;;;;;;;3.16;60.57;96386.72;5056335;28;911;-57
2024/01/28 05:34:10;;;;;;;;;;;;;;;3.15;60.75;96390.34;5056555;28;941;-59
2024/01/28 05:36:41;;;;;;;;;;;;;;;3.13;61.15;96387.78;5055300;28;1643;-57
2024/01/28 05:39:13;;;;;;;;;;;;;;;3.03;61.55;96391.84;5056109;28;1906;-57
2024/01/28 05:41:47;;;;;;;;;;;;;;;2.98;61.82;96399.19;5056146;28;1555;-57
2024/01/28 05:44:19;;;;;;;;;;;;;;;2.95;61.89;96394.06;5055839;28;1619;-58
2024/01/28 05:46:51;;;;;;;;;;;;;;;2.93;63.26;96396.78;5056214;28;1466;-59
2024/01/28 05:49:23;;;;;;;;;;;;;;;2.86;62.92;96399.84;5056035;28;1493;-58
2024/01/28 05:51:56;;;;;;;;;;;;;;;2.77;62.15;96406.50;5055656;28;1402;-58
2024/01/28 05:54:30;;;;;;;;;;;;;;;2.71;62.84;96398.88;5036772;28;1550;-57
2024/01/28 05:57:03;;;;;;;;;;;;;;;2.59;62.76;96402.19;5036114;28;1585;-58
2024/01/28 05:59:34;;;;;;;;;;;;;;;2.36;63.17;96416.59;5035594;28;1910;-60
2024/01/28 06:02:07;;;;;;;;;;;;;;;2.57;62.43;96417.25;5035600;28;1621;-58
2024/01/28 06:04:40;;;;;;;;;;;;;;;2.47;62.74;96407.19;5035900;28;1994;-59
2024/01/28 06:07:12;;;;;;;;;;;;;;;2.57;62.45;96419.91;5035748;28;1539;-60
2024/01/28 06:09:42;;;;;;;;;;;;;;;2.60;62.86;96419.72;5035352;28;1520;-59
2024/01/28 06:12:15;;;;;;;;;;;;;;;2.51;64.98;96426.38;5035629;28;1627;-60
2024/01/28 06:14:47;;;;;;;;;;;;;;;2.52;63.68;96428.06;5035325;28;1467;-59
2024/01/28 06:17:22;;;;;;;;;;;;;;;2.63;63.33;96440.69;5035566;28;926;-59
2024/01/28 06:19:56;;;;;;;;;;;;;;;2.70;63.50;96447.38;5034125;28;1922;-59
2024/01/28 06:23:06;;;;;;;;;;;;;;;2.75;65.42;96440.03;5012866;28;902;-60
2024/01/28 06:25:38;;;;;;;;;;;;;;;2.73;64.44;96445.44;5013547;28;1513;-59
2024/01/28 06:28:09;;;;;;;;;;;;;;;2.74;65.23;96443.63;5013337;28;1540;-59
2024/01/28 06:30:40;;;;;;;;;;;;;;;2.63;67.13;96443.34;5013474;28;1462;-60
2024/01/28 06:33:13;;;;;;;;;;;;;;;2.71;65.61;96443.78;4997835;28;1569;-60
2024/01/28 06:35:45;;;;;;;;;;;;;;;2.87;65.81;96454.41;5013345;28;1678;-59
2024/01/28 06:38:17;;;;;;;;;;;;;;;2.91;65.88;96458.56;5012711;28;1995;-59
2024/01/28 06:40:49;;;;;;;;;;;;;;;2.86;65.61;96463.25;5023991;28;1640;-59
2024/01/28 06:43:22;;;;;;;;;;;;;;;3.11;64.46;96465.41;5035065;28;1155;-58
2024/01/28 06:45:56;;;;;;;;;;;;;;;3.26;63.37;96466.38;5035093;28;1611;-59
2024/01/28 06:48:29;;;;;;;;;;;;;;;4.72;60.51;96460.59;5034989;28;1508;-59
2024/01/28 06:51:03;;;;;;;;;;;;;;;6.44;53.40;96483.31;5034991;28;1582;-59
2024/01/28 06:53:36;;;;;;;;;;;;;;;6.01;52.44;96489.69;5046752;28;1582;-60
2024/01/28 06:56:08;;;;;;;;;;;;;;;7.30;51.56;96495.16;5054980;28;1433;-60
2024/01/28 06:58:41;;;;;;;;;;;;;;;9.09;45.67;96513.06;5054579;28;2007;-60
2024/01/28 07:01:14;;;;;;;;;;;;;;;10.05;44.16;96514.38;5054405;28;1493;-60
2024/01/28 07:03:46;;;;;;;;;;;;;;;12.20;39.48;96534.56;5054237;28;1444;-60
2024/01/28 07:06:18;;;;;;;;;;;;;;;13.93;35.11;96551.75;5054205;28;1646;-60
2024/01/28 07:08:49;;;;;;;;;;;;;;;11.96;37.64;96548.34;5054704;28;1501;-60
2024/01/28 07:11:21;;;;;;;;;;;;;;;14.67;33.95;96560.72;5054718;28;1647;-60
2024/01/28 07:13:53;;;;;;;;;;;;;;;16.81;30.34;96579.16;5054253;28;1244;-61
2024/01/28 07:16:26;;;;;;;;;;;;;;;17.65;28.41;96590.75;5054382;28;1385;-60
2024/01/28 07:18:58;;;;;;;;;;;;;;;16.66;29.93;96601.41;5054280;28;2046;-59
2024/01/28 07:21:29;;;;;;;;;;;;;;;16.64;29.55;96599.84;5054436;28;1463;-59
2024/01/28 07:24:03;;;;;;;;;;;;;;;15.01;32.05;96588.66;5054570;28;1538;-59
2024/01/28 07:26:36;;;;;;;;;;;;;;;12.24;35.53;96577.09;5054445;28;1355;-58
2024/01/28 07:29:09;;;;;;;;;;;;;;;10.27;38.75;96563.44;5054356;28;910;-57
2024/01/28 07:31:41;;;;;;;;;;;;;;;10.59;38.66;96566.19;5054403;28;1617;-59
2024/01/28 07:34:15;;;;;;;;;;;;;;;8.99;41.22;96547.63;5054305;28;1528;-58
2024/01/28 07:36:47;;;;;;;;;;;;;;;7.95;43.45;96542.84;5054208;28;1304;-57
2024/01/28 07:39:20;;;;;;;;;;;;;;;6.95;46.08;96533.88;5053857;28;1938;-57
2024/01/28 07:41:52;;;;;;;;;;;;;;;6.72;46.57;96524.81;5054015;28;1518;-58
2024/01/28 07:44:26;;;;;;;;;;;;;;;6.88;46.27;96521.13;5054103;28;948;-60
2024/01/28 07:47:02;;;;;;;;;;;;;;;6.55;47.39;96517.13;5053831;28;1658;-60
2024/01/28 07:49:37;;;;;;;;;;;;;;;6.37;47.39;96517.38;5052838;28;1000;-60
2024/01/28 07:52:11;;;;;;;;;;;;;;;6.00;49.10;96505.69;5053960;28;1154;-59
2024/01/28 07:54:44;;;;;;;;;;;;;;;6.16;49.15;96501.06;5053580;28;969;-60
2024/01/28 07:57:17;;;;;;;;;;;;;;;6.20;47.93;96507.91;5053267;28;1548;-60
2024/01/28 07:59:52;;;;;;;;;;;;;;;6.04;49.03;96502.72;5053728;28;1973;-60
2024/01/28 08:02:26;;;;;;;;;;;;;;;5.88;49.14;96504.66;5053654;28;894;-59
2024/01/28 08:05:00;;;;;;;;;;;;;;;5.87;48.43;96503.78;5053690;28;934;-59
2024/01/28 08:07:33;;;;;;;;;;;;;;;5.78;49.47;96503.53;5053501;28;1236;-59
2024/01/28 08:10:08;;;;;;;;;;;;;;;5.86;49.60;96495.91;5053362;28;962;-60
2024/01/28 08:12:41;;;;;;;;;;;;;;;5.96;50.00;96496.22;5053172;28;1082;-60
2024/01/28 08:15:15;;;;;;;;;;;;;;;5.83;50.77;96491.66;5053327;28;1009;-59
2024/01/28 08:17:50;;;;;;;;;;;;;;;5.99;49.67;96502.16;5053309;28;1961;-60
2024/01/28 08:20:24;;;;;;;;;;;;;;;5.90;49.37;96500.09;5053767;28;961;-60
2024/01/28 08:22:57;;;;;;;;;;;;;;;5.91;49.29;96504.44;5053051;28;1526;-60
2024/01/28 08:25:31;;;;;;;;;;;;;;;6.01;49.69;96508.25;5053087;28;1741;-60
2024/01/28 08:28:05;;;;;;;;;;;;;;;6.22;49.80;96513.09;5053261;28;906;-60
2024/01/28 08:30:40;;;;;;;;;;;;;;;6.48;48.97;96513.19;5052942;28;1536;-60
2024/01/28 08:33:14;;;;;;;;;;;;;;;7.07;46.84;96510.91;5052961;28;988;-61
2024/01/28 08:35:47;;;;;;;;;;;;;;;7.61;46.44;96521.31;5053199;28;1491;-61
2024/01/28 08:38:22;;;;;;;;;;;;;;;7.80;46.51;96523.50;5052849;28;1906;-61
2024/01/28 08:40:57;;;;;;;;;;;;;;;7.39;47.13;96526.44;5053177;28;1004;-60
2024/01/28 08:43:31;;;;;;;;;;;;;;;7.06;48.65;96527.84;5053174;28;883;-60
2024/01/28 08:46:05;;;;;;;;;;;;;;;6.70;47.93;96533.88;5052888;28;956;-60
2024/01/28 08:48:39;;;;;;;;;;;;;;;6.38;49.36;96524.41;5052967;28;910;-61
2024/01/28 08:51:14;;;;;;;;;;;;;;;6.45;49.29;96525.72;5052987;28;930;-60
2024/01/28 08:53:46;;;;;;;;;;;;;;;6.47;49.28;96527.41;5039888;28;1664;-60
2024/01/28 08:56:18;;;;;;;;;;;;;;;6.30;50.31;96525.88;5033073;28;1460;-60
2024/01/28 08:58:52;;;;;;;;;;;;;;;6.25;50.83;96535.00;5032817;28;2419;-60
2024/01/28 09:01:28;;;;;;;;;;;;;;;6.23;49.90;96539.56;5032823;28;949;-60
2024/01/28 09:04:02;;;;;;;;;;;;;;;6.13;48.50;96538.47;5033209;28;1008;-60
2024/01/28 09:06:35;;;;;;;;;;;;;;;5.69;48.44;96555.38;5032886;28;1397;-60
2024/01/28 09:09:08;;;;;;;;;;;;;;;5.64;49.34;96539.75;5032897;28;1395;-60
2024/01/28 09:11:40;;;;;;;;;;;;;;;5.79;49.18;96542.41;5031784;28;1617;-60
2024/01/28 09:14:13;;;;;;;;;;;;;;;5.63;49.88;96548.69;5032623;28;1540;-60
2024/01/28 09:16:48;;;;;;;;;;;;;;;5.58;49.32;96553.44;5032903;28;1358;-59
2024/01/28 09:19:21;;;;;;;;;;;;;;;5.58;49.07;96552.59;5032445;28;1911;-60
2024/01/28 09:21:55;;;;;;;;;;;;;;;5.52;50.17;96556.47;5032990;28;980;-60
2024/01/28 09:24:30;;;;;;;;;;;;;;;5.48;49.54;96549.63;5062283;28;970;-60
2024/01/28 09:27:04;;;;;;;;;;;;;;;5.54;48.99;96554.56;5033109;28;942;-60
2024/01/28 09:29:38;;;;;;;;;;;;;;;5.52;49.72;96553.81;5036609;28;1021;-60
2024/01/28 09:32:11;;;;;;;;;;;;;;;5.56;50.65;96552.69;5036400;28;1626;-60
2024/01/28 09:34:45;;;;;;;;;;;;;;;5.45;49.46;96525.97;5036275;28;934;-60
2024/01/28 09:37:19;;;;;;;;;;;;;;;5.60;49.23;96559.50;5036133;28;1027;-60
2024/01/28 09:39:53;;;;;;;;;;;;;;;5.51;49.76;96554.75;5036062;28;1987;-59
2024/01/28 09:42:34;;;;;;;;;;;;;;;5.51;50.79;96549.44;5036005;28;997;-59
2024/01/28 09:45:08;;;;;;;;;;;;;;;5.67;49.86;96550.19;5036265;28;1718;-60
2024/01/28 09:47:43;;;;;;;;;;;;;;;5.65;50.78;96556.53;5036397;28;918;-59
2024/01/28 09:50:18;;;;;;;;;;;;;;;5.70;50.99;96540.34;5036003;28;990;-60
2024/01/28 09:52:53;;;;;;;;;;;;;;;5.86;49.37;96546.34;5041687;28;1146;-60
2024/01/28 09:55:27;;;;;;;;;;;;;;;5.76;50.53;96548.75;5055956;28;920;-60
2024/01/28 09:57:59;;;;;;;;;;;;;;;5.74;50.09;96545.34;5055566;28;1985;-60
2024/01/28 10:00:34;;;;;;;;;;;;;;;5.78;50.45;96540.69;5055801;28;1373;-60
2024/01/28 10:03:09;;;;;;;;;;;;;;;5.76;50.36;96543.44;5055676;28;996;-60
2024/01/28 10:05:44;;;;;;;;;;;;;;;5.66;51.76;96537.03;5055895;28;930;-60
2024/01/28 10:08:17;;;;;;;;;;;;;;;5.78;50.41;96532.72;5054624;28;1471;-60
2024/01/28 10:10:52;;;;;;;;;;;;;;;5.79;50.51;96531.78;5055751;28;1494;-60
2024/01/28 10:13:27;;;;;;;;;;;;;;;5.76;49.79;96524.00;5055330;28;1077;-59
2024/01/28 10:16:02;;;;;;;;;;;;;;;5.72;50.52;96520.69;5055789;28;1024;-59
2024/01/28 10:18:37;;;;;;;;;;;;;;;5.73;50.69;96526.84;5055310;28;1906;-59
2024/01/28 10:21:10;;;;;;;;;;;;;;;5.70;51.99;96516.44;5055428;28;1365;-60
2024/01/28 10:23:44;;;;;;;;;;;;;;;5.74;51.09;96524.09;5055382;28;1010;-60
2024/01/28 10:26:19;;;;;;;;;;;;;;;5.83;51.06;96522.69;5055376;28;895;-59
2024/01/28 10:28:52;;;;;;;;;;;;;;;5.73;50.80;96521.53;5055397;28;1524;-59
2024/01/28 10:31:25;;;;;;;;;;;;;;;5.78;50.94;96515.00;5055370;28;1467;-59
2024/01/28 10:34:00;;;;;;;;;;;;;;;5.71;51.87;96510.19;5055307;28;945;-59
2024/01/28 10:36:34;;;;;;;;;;;;;;;5.75;52.34;96515.22;5055027;28;946;-59
2024/01/28 10:39:10;;;;;;;;;;;;;;;5.95;50.70;96513.06;5054123;28;1910;-59
2024/01/28 10:41:48;;;;;;;;;;;;;;;6.00;51.26;96517.16;5055296;28;910;-59
2024/01/28 10:44:21;;;;;;;;;;;;;;;6.09;51.17;96512.19;5055079;28;1471;-59
2024/01/28 10:46:58;;;;;;;;;;;;;;;6.11;51.46;96505.84;5055017;28;960;-59
2024/01/28 10:49:34;;;;;;;;;;;;;;;6.04;50.94;96507.19;5054508;28;1416;-60
2024/01/28 10:52:08;;;;;;;;;;;;;;;6.00;51.21;96503.88;5055071;28;930;-59
2024/01/28 10:54:41;;;;;;;;;;;;;;;6.03;50.53;96497.50;5035041;28;1341;-59
2024/01/28 10:57:15;;;;;;;;;;;;;;;6.02;51.64;96501.97;5034765;28;957;-60
2024/01/28 10:59:51;;;;;;;;;;;;;;;6.08;51.57;96490.09;5034441;28;1914;-60
2024/01/28 11:02:26;;;;;;;;;;;;;;;6.18;51.57;96499.16;5034915;28;993;-59
2024/01/28 11:04:58;;;;;;;;;;;;;;;6.24;51.18;96501.44;5034817;28;1463;-59
2024/01/28 11:07:34;;;;;;;;;;;;;;;6.23;51.31;96499.72;5034592;28;970;-59
2024/01/28 11:10:08;;;;;;;;;;;;;;;6.20;50.47;96491.97;5034550;28;1404;-60
2024/01/28 11:12:41;;;;;;;;;;;;;;;6.31;50.13;96496.53;5034484;28;1501;-60
2024/01/28 11:15:14;;;;;;;;;;;;;;;6.18;50.44;96493.84;5034426;28;1596;-60
2024/01/28 11:17:50;;;;;;;;;;;;;;;6.05;52.22;96482.31;5034370;28;1987;-59
2024/01/28 11:20:23;;;;;;;;;;;;;;;6.04;51.46;96489.44;5034443;28;1385;-59
2024/01/28 11:22:58;;;;;;;;;;;;;;;5.90;52.08;96492.13;5034760;28;1357;-59
2024/01/28 11:25:31;;;;;;;;;;;;;;;5.83;51.96;96489.00;5034357;28;1459;-60
2024/01/28 11:28:10;;;;;;;;;;;;;;;5.75;51.34;96486.00;5034383;28;1336;-59
2024/01/28 11:30:45;;;;;;;;;;;;;;;5.65;52.40;96484.88;5034168;28;1363;-59
2024/01/28 11:33:17;;;;;;;;;;;;;;;5.63;51.99;96479.69;5034211;28;1604;-59
2024/01/28 11:35:52;;;;;;;;;;;;;;;5.65;52.85;96476.91;5034075;28;996;-59
2024/01/28 11:38:28;;;;;;;;;;;;;;;5.61;52.41;96478.06;5033959;28;1914;-59
2024/01/28 11:41:02;;;;;;;;;;;;;;;5.56;53.78;96475.72;5034111;28;1498;-59
2024/01/28 11:43:35;;;;;;;;;;;;;;;5.67;53.28;96477.66;5033907;28;1600;-59
2024/01/28 11:46:08;;;;;;;;;;;;;;;5.73;52.92;96473.78;5034049;28;1465;-60
2024/01/28 11:48:41;;;;;;;;;;;;;;;5.63;54.08;96469.09;5033997;28;1516;-60
2024/01/28 11:51:14;;;;;;;;;;;;;;;5.53;53.72;96473.25;5033518;28;1536;-60
2024/01/28 11:53:46;;;;;;;;;;;;;;;5.46;53.76;96477.25;5046580;28;1712;-60
2024/01/28 11:56:18;;;;;;;;;;;;;;;5.39;53.38;96471.50;5053636;28;1617;-59
2024/01/28 11:58:51;;;;;;;;;;;;;;;5.42;53.86;96471.28;5053571;28;1926;-59
2024/01/28 12:01:24;;;;;;;;;;;;;;;5.47;53.64;96474.50;5053711;28;1361;-59
2024/01/28 12:03:57;;;;;;;;;;;;;;;5.48;53.45;96473.56;5053736;28;1346;-59
2024/01/28 12:06:29;;;;;;;;;;;;;;;5.46;53.99;96474.59;5053498;28;1785;-59
2024/01/28 12:09:03;;;;;;;;;;;;;;;5.40;54.14;96472.34;5053688;28;918;-60
2024/01/28 12:11:37;;;;;;;;;;;;;;;5.35;54.29;96474.41;5053343;28;996;-60
2024/01/28 12:14:10;;;;;;;;;;;;;;;5.33;54.58;96471.00;5053132;28;1493;-60
2024/01/28 12:16:41;;;;;;;;;;;;;;;5.31;54.29;96470.25;5053171;28;1603;-60
2024/01/28 12:19:18;;;;;;;;;;;;;;;5.34;55.25;96475.38;5053050;28;1902;-60
2024/01/28 12:21:52;;;;;;;;;;;;;;;5.29;55.61;96467.69;5053308;28;965;-59
2024/01/28 12:24:25;;;;;;;;;;;;;;;5.38;55.41;96466.28;5053253;28;1724;-60
2024/01/28 12:26:59;;;;;;;;;;;;;;;5.32;54.48;96474.63;5053392;28;928;-60
2024/01/28 12:29:33;;;;;;;;;;;;;;;5.21;55.03;96468.19;5052993;28;992;-59
2024/01/28 12:32:08;;;;;;;;;;;;;;;5.20;56.25;96474.44;5053236;28;1611;-59
2024/01/28 12:34:40;;;;;;;;;;;;;;;5.20;55.18;96476.25;5053232;28;1499;-59
2024/01/28 12:37:12;;;;;;;;;;;;;;;5.09;55.90;96477.75;5053102;28;1537;-57
2024/01/28 12:39:44;;;;;;;;;;;;;;;5.01;56.35;96476.53;5052435;28;1906;-58
2024/01/28 12:42:18;;;;;;;;;;;;;;;4.99;56.30;96478.41;5052319;28;1392;-59
2024/01/28 12:44:50;;;;;;;;;;;;;;;5.01;55.98;96487.16;5053259;28;1508;-58
2024/01/28 12:47:22;;;;;;;;;;;;;;;4.97;56.10;96478.53;5052862;28;1685;-57
2024/01/28 12:49:54;;;;;;;;;;;;;;;4.91;56.46;96472.75;5053200;28;1598;-56
2024/01/28 12:52:26;;;;;;;;;;;;;;;4.86;56.92;96476.53;5053009;28;1485;-57
2024/01/28 12:55:00;;;;;;;;;;;;;;;4.95;57.81;96482.19;5053035;28;1443;-57
2024/01/28 12:57:32;;;;;;;;;;;;;;;5.06;57.12;96485.88;5053175;28;2093;-56
2024/01/28 13:00:06;;;;;;;;;;;;;;;4.94;58.01;96480.50;5052786;28;1910;-57
2024/01/28 13:02:39;;;;;;;;;;;;;;;4.93;56.50;96486.75;5054047;28;1402;-57
2024/01/28 13:05:11;;;;;;;;;;;;;;;4.85;57.51;96484.56;5056949;28;1537;-57
2024/01/28 13:07:42;;;;;;;;;;;;;;;4.88;57.84;96484.38;5055954;28;1544;-57
2024/01/28 13:10:14;;;;;;;;;;;;;;;4.96;57.11;96486.56;5056984;28;1467;-57
2024/01/28 13:12:46;;;;;;;;;;;;;;;4.94;57.20;96480.50;5056790;28;1429;-58
2024/01/28 13:15:19;;;;;;;;;;;;;;;4.89;57.32;96486.06;5056596;28;1688;-57
2024/01/28 13:17:52;;;;;;;;;;;;;;;4.93;57.83;96487.59;5056838;28;1910;-57
2024/01/28 13:20:24;;;;;;;;;;;;;;;4.91;57.10;96486.00;5056360;28;1426;-57
2024/01/28 13:22:56;;;;;;;;;;;;;;;4.89;57.87;96494.03;5055574;28;1600;-57
2024/01/28 13:25:27;;;;;;;;;;;;;;;4.89;58.37;96497.56;5056709;28;1312;-57
2024/01/28 13:28:00;;;;;;;;;;;;;;;4.94;58.26;96504.38;5055507;28;1433;-57
2024/01/28 13:30:32;;;;;;;;;;;;;;;4.92;57.15;96501.81;5056554;28;1563;-57
2024/01/28 13:33:04;;;;;;;;;;;;;;;4.89;57.62;96501.97;5056594;28;1530;-58
2024/01/28 13:35:37;;;;;;;;;;;;;;;4.82;57.93;96504.16;5056259;28;1658;-57
2024/01/28 13:38:09;;;;;;;;;;;;;;;4.84;58.27;96502.28;5056394;28;1914;-57
2024/01/28 13:40:42;;;;;;;;;;;;;;;4.86;58.05;96507.47;5055196;28;1382;-57
2024/01/28 13:43:14;;;;;;;;;;;;;;;4.81;59.28;96507.75;5056257;28;1348;-57